Time;durP1;ratioP1;P1;durP2;ratioP2;P2;SDS_P1;SDS_P2;PMS_P1;PMS_P2;Temp;Humidity;BMP_temperature;BMP_pressure;BME280_temperature;BME280_humidity;BME280_pressure;Samples;Min_cycle;Max_cycle;Signal;HPM_P1;HPM_P2
2022/12/12 00:01:37;;;;;;;14.02;6.07;;;0.10;99.90;;;;;;10112060;28;20021;-62
2022/12/12 00:06:28;;;;;;;15.82;6.82;;;0.20;99.90;;;;;;10103769;28;20479;-61
2022/12/12 00:11:20;;;;;;;25.17;8.38;;;0.20;99.90;;;;;;10114257;28;20070;-62
2022/12/12 00:16:11;;;;;;;18.33;7.15;;;0.20;99.90;;;;;;10109633;28;20464;-63
2022/12/12 00:21:04;;;;;;;17.35;7.32;;;0.00;99.90;;;;;;10117285;28;20370;-60
2022/12/12 00:26:00;;;;;;;14.77;6.57;;;0.30;99.90;;;;;;10124190;28;20056;-60
2022/12/12 00:30:51;;;;;;;18.88;6.95;;;0.30;99.90;;;;;;10119703;28;20492;-60
2022/12/12 00:35:42;;;;;;;12.82;6.25;;;0.20;99.90;;;;;;10116612;28;20219;-60
2022/12/12 00:40:32;;;;;;;15.88;6.50;;;0.10;99.90;;;;;;10111711;28;20013;-62
2022/12/12 00:45:23;;;;;;;14.98;6.40;;;0.00;99.90;;;;;;10119743;28;20039;-59
2022/12/12 00:50:14;;;;;;;17.52;6.25;;;0.20;99.90;;;;;;10118022;28;20479;-61
2022/12/12 00:55:05;;;;;;;19.15;5.97;;;0.20;99.90;;;;;;10119798;28;20060;-61
2022/12/12 00:59:56;;;;;;;18.27;6.55;;;0.30;99.90;;;;;;10107397;28;20024;-60
2022/12/12 01:04:47;;;;;;;17.80;7.07;;;0.30;99.90;;;;;;10122541;28;20263;-60
2022/12/12 01:09:38;;;;;;;22.58;8.43;;;0.40;99.90;;;;;;10117095;28;20021;-61
2022/12/12 01:14:28;;;;;;;16.23;6.70;;;0.00;99.90;;;;;;10110646;28;20041;-62
2022/12/12 01:19:19;;;;;;;19.88;7.32;;;-0.10;99.90;;;;;;10108231;28;20028;-60
2022/12/12 01:24:10;;;;;;;17.08;5.95;;;-0.10;99.90;;;;;;10115321;28;20131;-60
2022/12/12 01:29:00;;;;;;;18.90;7.07;;;0.00;99.90;;;;;;10110560;28;20025;-60
2022/12/12 01:33:51;;;;;;;21.95;7.78;;;0.00;99.90;;;;;;10121734;28;20071;-61
2022/12/12 01:38:46;;;;;;;16.63;7.22;;;0.00;99.90;;;;;;10109889;28;20357;-65
2022/12/12 01:43:37;;;;;;;17.50;6.30;;;0.00;99.90;;;;;;10108486;28;20029;-65
2022/12/12 01:48:30;;;;;;;16.42;6.80;;;-0.10;99.90;;;;;;10130586;28;20482;-64
2022/12/12 01:53:22;;;;;;;17.15;7.70;;;0.20;99.90;;;;;;10118566;28;20159;-63
2022/12/12 01:58:13;;;;;;;16.23;6.88;;;0.00;99.90;;;;;;10111809;28;20079;-63
2022/12/12 02:03:03;;;;;;;16.95;7.68;;;-0.10;99.90;;;;;;10122483;28;20025;-65
2022/12/12 02:07:55;;;;;;;18.10;7.13;;;-0.10;99.90;;;;;;10119732;28;20020;-67
2022/12/12 02:12:46;;;;;;;18.00;6.78;;;-0.10;99.90;;;;;;10139396;28;20047;-65
2022/12/12 02:17:39;;;;;;;19.60;7.43;;;0.20;99.90;;;;;;10142969;28;20021;-60
2022/12/12 02:22:55;;;;;;;15.65;6.97;;;0.20;99.90;;;;;;10133506;28;20055;-64
2022/12/12 02:28:18;;;;;;;18.02;7.80;;;0.20;99.90;;;;;;10135732;28;20105;-61
2022/12/12 02:33:37;;;;;;;16.13;6.75;;;0.00;99.90;;;;;;10145069;28;20037;-63
2022/12/12 02:39:06;;;;;;;23.45;8.18;;;0.00;99.90;;;;;;10142184;28;20614;-62
2022/12/12 02:44:34;;;;;;;23.65;7.78;;;-0.10;99.90;;;;;;9932751;28;20162;-61
2022/12/12 02:49:30;;;;;;;20.95;8.60;;;-0.20;99.90;;;;;;10081540;28;20604;-61
2022/12/12 02:54:22;;;;;;;19.23;7.07;;;-0.20;99.90;;;;;;10140659;28;20076;-61
2022/12/12 02:59:24;;;;;;;18.52;7.85;;;-0.20;99.90;;;;;;10122014;28;20044;-62
2022/12/12 03:10:00;;;;;;;16.13;7.03;;;-0.10;99.90;;;;;;10134345;28;20150;-62
2022/12/12 03:15:01;;;;;;;17.90;7.25;;;0.20;99.90;;;;;;10139528;28;20452;-62
2022/12/12 03:20:05;;;;;;;19.08;8.27;;;0.00;99.90;;;;;;10139286;28;20063;-61
2022/12/12 03:25:00;;;;;;;16.30;6.85;;;-0.20;99.90;;;;;;10121876;28;20140;-64
2022/12/12 03:30:02;;;;;;;19.52;7.97;;;-0.20;99.90;;;;;;10138920;28;20051;-61
2022/12/12 03:35:01;;;;;;;18.25;6.82;;;-0.20;99.90;;;;;;10139124;28;20048;-64
2022/12/12 03:40:00;;;;;;;19.50;7.22;;;0.10;99.90;;;;;;10139065;28;20035;-65
2022/12/12 03:44:57;;;;;;;15.60;6.28;;;0.10;99.90;;;;;;10139055;28;20032;-65
2022/12/12 03:49:55;;;;;;;23.23;8.32;;;0.20;99.90;;;;;;10125830;28;20031;-65
2022/12/12 03:54:57;;;;;;;18.95;7.00;;;0.00;99.90;;;;;;10137481;28;20060;-64
2022/12/12 03:59:54;;;;;;;14.43;6.97;;;0.00;99.90;;;;;;10137789;28;20036;-61
2022/12/12 04:04:51;;;;;;;18.20;7.03;;;0.00;99.90;;;;;;10137336;28;20032;-61
2022/12/12 04:15:10;;;;;;;16.73;6.78;;;0.20;99.90;;;;;;10137594;28;20150;-63
2022/12/12 04:26:37;;;;;;;15.02;6.28;;;0.20;99.90;;;;;;10137556;28;20051;-60
2022/12/12 04:30:45;;;;;;;16.17;5.82;;;0.30;99.90;;;;;;10132783;28;20032;-63
2022/12/12 04:35:42;;;;;;;15.77;6.40;;;0.20;99.90;;;;;;10137592;28;20546;-65
2022/12/12 04:40:39;;;;;;;20.48;6.72;;;0.30;99.90;;;;;;10139319;28;20244;-61
2022/12/12 04:45:39;;;;;;;20.52;7.05;;;0.40;99.90;;;;;;10138882;28;20127;-64
2022/12/12 04:50:33;;;;;;;18.38;6.55;;;0.40;99.90;;;;;;10141678;28;20108;-62
2022/12/12 04:55:31;;;;;;;14.43;6.13;;;0.50;99.90;;;;;;10137028;28;20048;-61
2022/12/12 05:00:26;;;;;;;21.00;7.53;;;0.40;99.90;;;;;;10135924;28;20040;-61
2022/12/12 05:05:18;;;;;;;15.70;6.88;;;0.40;99.90;;;;;;10135309;28;20086;-61
2022/12/12 05:10:16;;;;;;;22.27;8.43;;;0.40;99.90;;;;;;10136683;28;20022;-62
2022/12/12 05:15:08;;;;;;;15.57;6.25;;;0.20;99.90;;;;;;10139369;28;20041;-62
2022/12/12 05:19:59;;;;;;;18.75;5.97;;;0.40;99.90;;;;;;10143818;28;20760;-60
2022/12/12 05:24:49;;;;;;;16.58;6.45;;;0.50;99.90;;;;;;10151825;28;20029;-61
2022/12/12 05:29:40;;;;;;;15.38;5.90;;;0.60;99.90;;;;;;10143904;28;20135;-60
2022/12/12 05:34:30;;;;;;;17.52;7.20;;;0.50;99.90;;;;;;10143712;28;20032;-60
2022/12/12 05:39:21;;;;;;;14.77;6.90;;;0.40;99.90;;;;;;10143367;28;20256;-60
2022/12/12 05:44:14;;;;;;;16.50;6.40;;;0.50;99.90;;;;;;10146340;28;20025;-63
2022/12/12 05:49:05;;;;;;;17.50;6.20;;;0.40;99.90;;;;;;10144721;28;20035;-60
2022/12/12 05:53:56;;;;;;;16.65;6.10;;;0.40;99.90;;;;;;10144308;28;20037;-62
2022/12/12 05:58:46;;;;;;;16.65;7.50;;;0.30;99.90;;;;;;10142497;28;20089;-67
2022/12/12 06:03:38;;;;;;;17.80;6.20;;;0.20;99.90;;;;;;10143001;28;20060;-60
2022/12/12 06:08:29;;;;;;;17.90;7.63;;;0.30;99.90;;;;;;10141791;28;20024;-62
2022/12/12 06:13:19;;;;;;;14.88;6.30;;;0.30;99.90;;;;;;10123875;28;20120;-64
2022/12/12 06:18:11;;;;;;;18.08;7.03;;;0.30;99.90;;;;;;10142211;28;20028;-62
2022/12/12 06:23:01;;;;;;;12.55;6.80;;;0.30;99.90;;;;;;10142868;28;20035;-65
2022/12/12 06:27:52;;;;;;;17.10;6.30;;;0.30;99.90;;;;;;10140201;28;20027;-61
2022/12/12 06:32:42;;;;;;;16.67;6.78;;;0.40;99.90;;;;;;10142009;28;20041;-61
2022/12/12 06:37:33;;;;;;;16.40;6.75;;;0.40;99.90;;;;;;10143938;28;20020;-62
2022/12/12 06:42:24;;;;;;;14.95;6.78;;;0.30;99.90;;;;;;10142709;28;20021;-60
2022/12/12 06:47:15;;;;;;;16.15;6.45;;;0.40;99.90;;;;;;10149383;28;20016;-60
2022/12/12 06:52:06;;;;;;;16.92;6.63;;;0.30;99.90;;;;;;10123029;28;20394;-60
2022/12/12 06:56:56;;;;;;;17.08;7.25;;;0.20;99.90;;;;;;10140489;28;20132;-66
2022/12/12 07:01:47;;;;;;;14.07;5.88;;;0.30;99.90;;;;;;10139939;28;20040;-61
2022/12/12 07:06:38;;;;;;;15.68;6.68;;;0.40;99.90;;;;;;10139717;28;20519;-61
2022/12/12 07:11:28;;;;;;;17.10;7.78;;;0.20;99.90;;;;;;10137958;28;20448;-61
2022/12/12 07:16:19;;;;;;;13.88;7.13;;;0.20;99.90;;;;;;10137435;28;20474;-62
2022/12/12 07:21:13;;;;;;;16.13;6.32;;;0.40;99.90;;;;;;10139737;28;20498;-61
2022/12/12 07:26:05;;;;;;;16.45;6.68;;;0.20;99.90;;;;;;10142462;28;20024;-60
2022/12/12 07:30:56;;;;;;;18.70;6.50;;;0.20;99.90;;;;;;10124367;28;20487;-60
2022/12/12 07:35:46;;;;;;;18.38;7.70;;;0.30;99.90;;;;;;10138328;28;20127;-62
2022/12/12 07:40:37;;;;;;;14.52;6.70;;;0.20;99.90;;;;;;10127729;28;20394;-61
2022/12/12 07:45:28;;;;;;;14.60;6.15;;;0.20;99.90;;;;;;10132672;28;20027;-60
2022/12/12 07:50:19;;;;;;;20.52;7.00;;;0.30;99.90;;;;;;10134514;28;20033;-59
2022/12/12 07:55:10;;;;;;;18.55;7.00;;;0.30;99.90;;;;;;10141540;28;20110;-60
2022/12/12 08:00:01;;;;;;;14.07;5.63;;;0.30;99.90;;;;;;10138980;28;20021;-59
2022/12/12 08:04:52;;;;;;;17.40;6.45;;;0.40;99.90;;;;;;10135072;28;20040;-59
2022/12/12 08:09:43;;;;;;;10.43;5.32;;;0.40;99.90;;;;;;10131124;28;20025;-58
2022/12/12 08:14:33;;;;;;;15.45;6.57;;;0.30;99.90;;;;;;10137936;28;20101;-63
2022/12/12 08:19:24;;;;;;;14.82;5.93;;;0.20;99.90;;;;;;10136270;28;20033;-64
2022/12/12 08:24:15;;;;;;;15.57;6.55;;;0.00;99.90;;;;;;10130640;28;20032;-60
2022/12/12 08:29:06;;;;;;;12.00;5.03;;;0.20;99.90;;;;;;10138181;28;20024;-60
2022/12/12 08:33:59;;;;;;;16.35;5.93;;;0.10;99.90;;;;;;10140076;28;20036;-62
2022/12/12 08:38:50;;;;;;;12.10;6.60;;;0.10;99.90;;;;;;10137497;28;20104;-52
2022/12/12 08:43:42;;;;;;;14.50;5.55;;;0.20;99.90;;;;;;10128016;28;20032;-58
2022/12/12 08:48:33;;;;;;;14.57;6.07;;;0.50;99.90;;;;;;10118776;28;20020;-58
2022/12/12 08:53:25;;;;;;;14.55;6.20;;;0.70;99.90;;;;;;10115606;28;20571;-63
2022/12/12 08:58:16;;;;;;;19.08;8.00;;;0.70;99.90;;;;;;10099637;28;20519;-60
2022/12/12 09:03:06;;;;;;;19.30;7.68;;;0.40;99.90;;;;;;10114805;28;20507;-60
2022/12/12 09:07:58;;;;;;;20.17;6.65;;;0.20;99.90;;;;;;10112764;28;20028;-60
2022/12/12 09:12:49;;;;;;;13.40;6.10;;;0.00;99.90;;;;;;10136932;28;20128;-58
2022/12/12 09:17:39;;;;;;;21.13;7.63;;;0.00;99.90;;;;;;10136490;28;20111;-60
2022/12/12 09:22:30;;;;;;;16.08;6.40;;;0.00;99.90;;;;;;10136123;28;20040;-55
2022/12/12 09:27:20;;;;;;;18.90;8.85;;;0.10;99.90;;;;;;10102353;28;20202;-60
2022/12/12 09:32:11;;;;;;;15.73;6.57;;;0.10;99.90;;;;;;10111421;28;20067;-60
2022/12/12 09:37:02;;;;;;;17.27;7.55;;;0.30;99.90;;;;;;10124545;28;20028;-55
2022/12/12 09:41:53;;;;;;;17.63;7.13;;;0.40;99.90;;;;;;10126157;28;20478;-59
2022/12/12 09:46:47;;;;;;;16.52;5.60;;;0.40;99.90;;;;;;10118624;28;20383;-56
2022/12/12 09:51:38;;;;;;;18.83;7.10;;;0.30;99.90;;;;;;10127066;28;20107;-56
2022/12/12 09:56:43;;;;;;;18.73;8.75;;;0.20;99.90;;;;;;10108105;28;20231;-56
2022/12/12 10:01:38;;;;;;;19.02;6.45;;;0.40;99.90;;;;;;10126150;28;21001;-69
2022/12/12 10:06:40;;;;;;;15.43;6.10;;;0.40;99.90;;;;;;10115901;28;20036;-67
2022/12/12 10:16:43;;;;;;;18.00;7.45;;;0.90;99.90;;;;;;10135810;28;20039;-59
2022/12/12 10:21:39;;;;;;;18.63;7.45;;;1.10;99.90;;;;;;10143593;28;20391;-56
2022/12/12 10:26:30;;;;;;;15.85;6.47;;;1.20;99.90;;;;;;10144528;28;20023;-61
2022/12/12 10:31:45;;;;;;;16.55;6.80;;;1.10;99.90;;;;;;10103798;28;20051;-61
2022/12/12 10:36:54;;;;;;;17.00;6.57;;;1.30;99.90;;;;;;10138243;28;20033;-55
2022/12/12 10:41:47;;;;;;;16.67;6.78;;;1.30;99.90;;;;;;10137481;28;20036;-53
2022/12/12 10:46:45;;;;;;;17.48;6.47;;;1.40;99.90;;;;;;10133300;28;20036;-54
2022/12/12 10:51:36;;;;;;;18.00;6.32;;;1.60;99.90;;;;;;10116030;28;20094;-59
2022/12/12 10:56:30;;;;;;;17.65;6.88;;;1.70;99.90;;;;;;10122659;28;20499;-56
2022/12/12 11:01:29;;;;;;;19.15;8.75;;;2.00;99.90;;;;;;10116639;28;20028;-57
2022/12/12 11:06:37;;;;;;;17.77;8.50;;;2.00;99.90;;;;;;10101804;28;20056;-67
2022/12/12 11:11:29;;;;;;;16.70;7.53;;;2.10;99.90;;;;;;10137481;28;20107;-68
2022/12/12 11:16:28;;;;;;;14.80;6.93;;;2.20;99.90;;;;;;10122985;28;20041;-68
2022/12/12 11:21:19;;;;;;;16.38;7.40;;;2.00;99.90;;;;;;10146513;28;20013;-70
2022/12/12 11:26:13;;;;;;;15.48;7.43;;;2.00;99.90;;;;;;10140709;28;20391;-63
2022/12/12 11:31:07;;;;;;;15.07;7.18;;;2.10;99.90;;;;;;10140939;28;20016;-58
2022/12/12 11:36:00;;;;;;;13.75;7.45;;;2.20;99.90;;;;;;10138240;28;20063;-66
2022/12/12 11:41:03;;;;;;;13.35;6.70;;;2.30;99.90;;;;;;10139762;28;20103;-63
2022/12/12 11:46:15;;;;;;;15.75;7.22;;;2.10;99.90;;;;;;10126433;28;20028;-61
2022/12/12 11:51:07;;;;;;;16.33;6.28;;;1.80;99.90;;;;;;10127044;28;20120;-60
2022/12/12 11:56:16;;;;;;;12.52;5.30;;;1.40;99.90;;;;;;10121594;28;20417;-60
2022/12/12 12:01:40;;;;;;;14.30;6.10;;;1.40;99.90;;;;;;10119225;28;20037;-61
2022/12/12 12:06:58;;;;;;;10.70;5.47;;;1.40;99.90;;;;;;10121475;28;20016;-61
2022/12/12 12:12:32;;;;;;;8.85;4.80;;;1.50;99.90;;;;;;10136705;28;20068;-57
2022/12/12 12:17:23;;;;;;;10.82;4.90;;;1.50;99.90;;;;;;10120608;28;20098;-58
2022/12/12 12:22:38;;;;;;;14.18;6.13;;;1.50;99.90;;;;;;10119511;28;21061;-56
2022/12/12 12:27:31;;;;;;;13.68;5.53;;;1.60;99.90;;;;;;10132914;28;20356;-58
2022/12/12 12:32:44;;;;;;;16.00;6.95;;;1.60;99.90;;;;;;10136932;28;20473;-70
2022/12/12 12:37:43;;;;;;;15.70;5.72;;;1.50;99.90;;;;;;10131563;28;20028;-58
2022/12/12 12:43:01;;;;;;;10.95;5.50;;;1.60;99.90;;;;;;10109944;28;20277;-58
2022/12/12 12:47:57;;;;;;;13.98;5.88;;;1.50;99.90;;;;;;10128025;28;20037;-54
2022/12/12 12:53:17;;;;;;;14.15;6.05;;;1.60;99.90;;;;;;10126240;28;20143;-55
2022/12/12 12:58:20;;;;;;;11.05;5.07;;;1.60;99.90;;;;;;10121782;28;20506;-57
2022/12/12 13:03:22;;;;;;;12.77;5.82;;;1.40;99.90;;;;;;10114253;28;20028;-59
2022/12/12 13:08:23;;;;;;;12.93;5.38;;;1.40;99.90;;;;;;10128139;28;20527;-56
2022/12/12 13:13:33;;;;;;;12.52;5.13;;;1.60;99.90;;;;;;10136505;28;20032;-63
2022/12/12 13:18:24;;;;;;;12.65;4.80;;;1.50;99.90;;;;;;10119583;28;20048;-55
2022/12/12 13:23:34;;;;;;;16.02;6.20;;;1.50;99.90;;;;;;10110777;28;20025;-58
2022/12/12 13:28:31;;;;;;;11.45;5.78;;;1.40;99.90;;;;;;10101499;28;20033;-60
2022/12/12 13:33:37;;;;;;;12.27;6.03;;;1.40;99.90;;;;;;10114423;28;20040;-55
2022/12/12 13:38:31;;;;;;;8.85;4.65;;;1.50;99.90;;;;;;10128317;28;20020;-60
2022/12/12 13:43:29;;;;;;;13.05;6.00;;;1.50;99.90;;;;;;10129923;28;20028;-59
2022/12/12 13:48:26;;;;;;;17.85;7.18;;;1.50;99.90;;;;;;10117542;28;20033;-61
2022/12/12 13:53:18;;;;;;;15.88;8.35;;;1.60;99.90;;;;;;10118028;28;20068;-57
2022/12/12 13:58:32;;;;;;;14.23;6.53;;;1.50;99.90;;;;;;10124702;28;20511;-58
2022/12/12 14:03:30;;;;;;;17.10;6.97;;;1.50;99.90;;;;;;10129896;28;20021;-58
2022/12/12 14:08:25;;;;;;;19.20;7.78;;;1.80;99.90;;;;;;10122395;28;20491;-61
2022/12/12 14:13:22;;;;;;;24.10;8.98;;;1.90;99.90;;;;;;10146844;28;20033;-60
2022/12/12 14:18:21;;;;;;;21.48;8.85;;;1.90;99.90;;;;;;10145666;28;20028;-57
2022/12/12 14:23:12;;;;;;;24.83;8.65;;;1.70;99.90;;;;;;10138530;28;20028;-57
2022/12/12 14:28:16;;;;;;;18.67;8.55;;;1.80;99.90;;;;;;10141726;28;20020;-57
2022/12/12 14:33:42;;;;;;;19.17;7.38;;;2.00;99.90;;;;;;10126101;28;20064;-56
2022/12/12 14:38:37;;;;;;;14.85;7.65;;;2.10;99.90;;;;;;10143015;28;20119;-62
2022/12/12 14:43:34;;;;;;;16.65;7.32;;;2.10;99.90;;;;;;10136630;28;20187;-51
2022/12/12 14:48:30;;;;;;;17.20;8.30;;;1.90;99.90;;;;;;10125577;28;20408;-56
2022/12/12 14:53:29;;;;;;;14.10;7.15;;;1.70;99.90;;;;;;10126196;28;20356;-52
2022/12/12 14:58:22;;;;;;;17.48;8.63;;;1.50;99.90;;;;;;10117476;28;20494;-56
2022/12/12 15:03:13;;;;;;;27.13;8.90;;;1.20;99.90;;;;;;10118887;28;20133;-54
2022/12/12 15:08:04;;;;;;;15.50;6.28;;;1.20;99.90;;;;;;10116704;28;20365;-56
2022/12/12 15:12:55;;;;;;;18.73;7.55;;;1.30;99.90;;;;;;10139524;28;20028;-57
2022/12/12 15:17:49;;;;;;;15.10;6.28;;;1.20;99.90;;;;;;10139545;28;20091;-60
2022/12/12 15:23:01;;;;;;;14.40;6.50;;;1.20;99.90;;;;;;10122595;28;20101;-56
2022/12/12 15:27:54;;;;;;;14.32;5.78;;;1.00;99.90;;;;;;10140402;28;20025;-59
2022/12/12 15:32:47;;;;;;;13.48;6.35;;;1.00;99.90;;;;;;10139768;28;20062;-55
2022/12/12 15:37:38;;;;;;;13.48;6.07;;;0.80;99.90;;;;;;10140102;28;20043;-61
2022/12/12 15:42:32;;;;;;;19.08;6.22;;;0.70;99.90;;;;;;10151691;28;20031;-61
2022/12/12 15:47:23;;;;;;;10.68;5.57;;;0.60;99.90;;;;;;10139321;28;20033;-63
2022/12/12 15:52:26;;;;;;;15.25;5.63;;;0.60;99.90;;;;;;10121808;28;20024;-59
2022/12/12 15:57:20;;;;;;;12.73;5.40;;;0.60;99.90;;;;;;10129849;28;20117;-63
2022/12/12 16:02:22;;;;;;;15.65;6.07;;;0.60;99.90;;;;;;10138299;28;20094;-58
2022/12/12 16:07:19;;;;;;;11.48;5.10;;;0.60;99.90;;;;;;10115613;28;20028;-58
2022/12/12 16:12:10;;;;;;;16.92;7.82;;;0.60;99.90;;;;;;10142017;28;20518;-61
2022/12/12 16:17:18;;;;;;;11.70;5.47;;;0.50;99.90;;;;;;10138030;28;20032;-56
2022/12/12 16:22:29;;;;;;;12.23;6.05;;;0.50;99.90;;;;;;10123834;28;20066;-61
2022/12/12 16:27:20;;;;;;;10.10;5.53;;;0.40;99.90;;;;;;10133756;28;20398;-60
2022/12/12 16:32:22;;;;;;;14.32;6.03;;;0.40;99.90;;;;;;10138887;28;20107;-67
2022/12/12 16:37:16;;;;;;;18.02;7.18;;;0.40;99.90;;;;;;10125949;28;20032;-66
2022/12/12 16:42:16;;;;;;;16.80;7.93;;;0.10;99.90;;;;;;10139999;28;20055;-71
2022/12/12 16:47:23;;;;;;;18.40;6.70;;;-0.20;99.90;;;;;;10136872;28;20502;-57
2022/12/12 16:52:19;;;;;;;16.42;6.20;;;-0.30;99.90;;;;;;10135016;28;20109;-61
2022/12/12 16:57:09;;;;;;;14.23;7.15;;;-0.30;99.90;;;;;;10136730;28;20053;-73
2022/12/12 17:02:00;;;;;;;18.25;7.00;;;-0.50;99.90;;;;;;10137304;28;20029;-65
2022/12/12 17:06:51;;;;;;;14.18;6.93;;;-0.60;99.90;;;;;;10131423;28;20029;-62
2022/12/12 17:11:42;;;;;;;18.63;6.68;;;-0.50;99.90;;;;;;10142629;28;20233;-62
2022/12/12 17:16:32;;;;;;;18.83;6.68;;;-0.50;99.90;;;;;;10144583;28;20036;-59
2022/12/12 17:21:23;;;;;;;19.17;6.88;;;-0.40;99.90;;;;;;10145156;28;20020;-58
2022/12/12 17:26:14;;;;;;;17.00;6.45;;;-0.40;99.90;;;;;;10140982;28;20482;-58
2022/12/12 17:31:08;;;;;;;13.98;5.68;;;-0.40;99.90;;;;;;10125492;28;20028;-64
2022/12/12 17:36:01;;;;;;;16.55;6.82;;;-0.50;99.90;;;;;;10127058;28;20029;-56
2022/12/12 17:40:54;;;;;;;21.48;7.32;;;-0.60;99.90;;;;;;10129430;28;20033;-57
2022/12/12 17:45:45;;;;;;;15.35;7.22;;;-0.80;99.90;;;;;;10135597;28;20934;-54
2022/12/12 17:50:35;;;;;;;13.60;5.38;;;-1.00;99.90;;;;;;10122321;28;20174;-59
2022/12/12 17:55:26;;;;;;;24.60;11.05;;;-0.90;99.90;;;;;;10125404;28;20049;-63
2022/12/12 18:00:17;;;;;;;24.40;7.53;;;-1.10;99.90;;;;;;10118996;28;20024;-61
2022/12/12 18:05:08;;;;;;;25.40;10.68;;;-1.10;99.90;;;;;;10129992;28;20127;-63
2022/12/12 18:09:59;;;;;;;24.45;9.55;;;-1.00;99.90;;;;;;10136686;28;20032;-55
2022/12/12 18:14:49;;;;;;;23.60;9.65;;;-1.00;99.90;;;;;;10141344;28;20140;-73
2022/12/12 18:19:40;;;;;;;17.50;7.05;;;-1.00;99.90;;;;;;10142233;28;20032;-60
2022/12/12 18:24:31;;;;;;;15.35;7.03;;;-1.10;99.90;;;;;;10134211;28;20379;-56
2022/12/12 18:29:23;;;;;;;17.42;6.18;;;-1.10;99.90;;;;;;10117733;28;20090;-56
2022/12/12 18:34:14;;;;;;;15.85;7.53;;;-1.20;99.90;;;;;;10140157;28;20033;-59
2022/12/12 18:39:05;;;;;;;12.65;7.20;;;-1.20;99.90;;;;;;10141694;28;20027;-56
2022/12/12 18:43:56;;;;;;;19.85;7.10;;;-1.00;99.90;;;;;;10141853;28;20079;-58
2022/12/12 18:48:47;;;;;;;8.68;5.40;;;-0.90;99.90;;;;;;10123638;28;20021;-68
2022/12/12 18:53:42;;;;;;;21.13;8.68;;;-0.90;99.90;;;;;;10140336;28;20109;-61
2022/12/12 18:58:33;;;;;;;17.23;7.10;;;-0.90;99.90;;;;;;10132352;28;20053;-56
2022/12/12 19:03:24;;;;;;;14.88;8.85;;;-1.00;99.90;;;;;;10128366;28;20421;-61
2022/12/12 19:08:14;;;;;;;16.13;7.43;;;-1.00;99.90;;;;;;10140208;28;20020;-67
2022/12/12 19:13:05;;;;;;;23.58;8.32;;;-0.90;99.90;;;;;;10137571;28;20090;-57
2022/12/12 19:17:56;;;;;;;17.30;6.50;;;-1.00;99.90;;;;;;10118786;28;20029;-59
2022/12/12 19:22:47;;;;;;;16.40;7.63;;;-1.20;99.90;;;;;;10133105;28;20539;-60
2022/12/12 19:27:37;;;;;;;24.67;7.72;;;-1.30;99.90;;;;;;10141028;28;20111;-58
2022/12/12 19:32:28;;;;;;;16.73;7.68;;;-1.50;99.90;;;;;;10136536;28;20280;-60
2022/12/12 19:37:19;;;;;;;17.27;6.60;;;-1.60;99.90;;;;;;10122425;28;20029;-57
2022/12/12 19:42:09;;;;;;;18.63;7.57;;;-1.50;99.90;;;;;;10130841;28;20028;-61
2022/12/12 19:47:00;;;;;;;18.95;8.30;;;-1.40;99.90;;;;;;10133937;28;20047;-63
2022/12/12 19:51:51;;;;;;;19.52;7.22;;;-1.40;99.90;;;;;;10135950;28;20017;-59
2022/12/12 19:56:42;;;;;;;19.25;7.18;;;-1.40;99.90;;;;;;10138705;28;20052;-58
2022/12/12 20:01:35;;;;;;;15.45;7.57;;;-1.40;99.90;;;;;;10107074;28;20016;-61
2022/12/12 20:06:26;;;;;;;18.23;7.63;;;-1.50;99.90;;;;;;10137192;28;20021;-63
2022/12/12 20:11:20;;;;;;;14.88;6.78;;;-1.40;99.90;;;;;;10138867;28;20165;-67
2022/12/12 20:16:13;;;;;;;17.05;8.30;;;-1.40;99.90;;;;;;10133740;28;20225;-61
2022/12/12 20:21:05;;;;;;;12.88;6.70;;;-1.40;99.90;;;;;;10110271;28;20167;-65
2022/12/12 20:25:56;;;;;;;15.48;7.57;;;-1.20;99.90;;;;;;10105572;28;20363;-64
2022/12/12 20:30:47;;;;;;;15.80;6.13;;;-1.20;99.90;;;;;;10139493;28;20024;-62
2022/12/12 20:35:37;;;;;;;18.40;6.95;;;-1.20;99.90;;;;;;10130898;28;20033;-64
2022/12/12 20:40:28;;;;;;;17.85;6.22;;;-1.20;99.90;;;;;;10124596;28;20089;-64
2022/12/12 20:45:19;;;;;;;18.10;7.82;;;-1.20;99.90;;;;;;10119550;28;20021;-63
2022/12/12 20:50:11;;;;;;;19.52;7.20;;;-1.20;99.90;;;;;;10125490;28;20029;-62
2022/12/12 20:55:02;;;;;;;17.40;7.28;;;-1.20;99.90;;;;;;10105191;28;20401;-61
2022/12/12 20:59:53;;;;;;;23.38;8.35;;;-1.20;99.90;;;;;;10106211;28;20119;-63
2022/12/12 21:04:44;;;;;;;19.10;8.30;;;-1.20;99.90;;;;;;10107025;28;20037;-71
2022/12/12 21:09:35;;;;;;;18.65;7.28;;;-1.20;99.90;;;;;;10119003;28;20091;-67
2022/12/12 21:14:29;;;;;;;20.92;6.95;;;-1.30;99.90;;;;;;10134924;28;20464;-70
2022/12/12 21:19:22;;;;;;;12.75;6.55;;;-1.40;99.90;;;;;;10113717;28;20025;-69
2022/12/12 21:24:16;;;;;;;26.90;10.18;;;-1.30;99.90;;;;;;10137652;28;20395;-64
2022/12/12 21:29:07;;;;;;;22.13;9.70;;;-1.40;99.90;;;;;;10135877;28;20102;-65
2022/12/12 21:34:01;;;;;;;19.27;8.93;;;-1.40;99.90;;;;;;10136778;28;20125;-66
2022/12/12 21:38:53;;;;;;;19.75;8.68;;;-1.40;99.90;;;;;;10134851;28;20100;-66
2022/12/12 21:43:45;;;;;;;17.67;7.70;;;-1.40;99.90;;;;;;10141775;28;20070;-69
2022/12/12 21:48:36;;;;;;;22.98;9.00;;;-1.50;99.90;;;;;;10138074;28;20047;-64
2022/12/12 21:53:32;;;;;;;18.50;9.35;;;-1.50;99.90;;;;;;10139100;28;20045;-68
2022/12/12 21:58:23;;;;;;;23.88;9.52;;;-1.50;99.90;;;;;;10139758;28;20158;-64
2022/12/12 22:03:13;;;;;;;16.38;7.72;;;-1.50;99.90;;;;;;10143426;28;20114;-67
2022/12/12 22:08:04;;;;;;;21.73;7.63;;;-1.50;99.90;;;;;;10142982;28;20104;-67
2022/12/12 22:12:58;;;;;;;17.83;8.23;;;-1.50;99.90;;;;;;10142248;28;20456;-67
2022/12/12 22:17:49;;;;;;;22.33;9.40;;;-1.40;99.90;;;;;;10138676;28;20040;-67
2022/12/12 22:22:39;;;;;;;17.75;8.70;;;-1.40;99.90;;;;;;10123878;28;20032;-67
2022/12/12 22:27:32;;;;;;;16.92;7.07;;;-1.40;99.90;;;;;;10141594;28;20371;-68
2022/12/12 22:32:23;;;;;;;18.95;9.75;;;-1.40;99.90;;;;;;10117496;28;20120;-66
2022/12/12 22:37:14;;;;;;;19.27;8.55;;;-1.50;99.90;;;;;;10146348;28;20112;-66
2022/12/12 22:42:04;;;;;;;19.70;8.00;;;-1.50;99.90;;;;;;10115793;28;20507;-67
2022/12/12 22:46:55;;;;;;;14.95;6.43;;;-1.60;99.90;;;;;;10135918;28;20040;-66
2022/12/12 22:51:47;;;;;;;16.60;7.00;;;-1.50;99.90;;;;;;10125820;28;20032;-68
2022/12/12 22:56:39;;;;;;;20.08;7.57;;;-1.50;99.90;;;;;;10115395;28;20483;-67
2022/12/12 23:01:30;;;;;;;16.40;6.03;;;-1.50;99.90;;;;;;10118820;28;20479;-69
2022/12/12 23:06:28;;;;;;;18.45;7.30;;;-1.60;99.90;;;;;;10122991;28;20135;-69
2022/12/12 23:11:20;;;;;;;24.80;8.88;;;-1.70;99.90;;;;;;10137423;28;20012;-67
2022/12/12 23:16:17;;;;;;;21.80;8.80;;;-1.70;99.90;;;;;;10139490;28;20072;-69
2022/12/12 23:21:11;;;;;;;29.73;10.15;;;-1.80;99.90;;;;;;10140024;28;20029;-67
2022/12/12 23:26:04;;;;;;;19.58;8.13;;;-1.80;99.90;;;;;;10140116;28;20042;-70
2022/12/12 23:30:56;;;;;;;27.05;8.20;;;-1.80;99.90;;;;;;10139498;28;20123;-66
2022/12/12 23:35:48;;;;;;;16.13;8.23;;;-1.80;99.90;;;;;;10139894;28;20053;-69
2022/12/12 23:40:38;;;;;;;20.83;7.78;;;-1.90;99.90;;;;;;10139659;28;20024;-69
2022/12/12 23:45:29;;;;;;;20.95;10.65;;;-2.00;99.90;;;;;;10143701;28;20028;-67
2022/12/12 23:50:20;;;;;;;25.70;10.45;;;-1.90;99.90;;;;;;10141225;28;20028;-68
2022/12/12 23:55:10;;;;;;;21.17;8.75;;;-2.00;99.90;;;;;;10119322;28;20123;-67
